Time;durP1;ratioP1;P1;durP2;ratioP2;P2;SDS_P1;SDS_P2;PMS_P1;PMS_P2;Temp;Humidity;BMP_temperature;BMP_pressure;BME280_temperature;BME280_humidity;BME280_pressure;Samples;Min_cycle;Max_cycle;Signal;HPM_P1;HPM_P2
2022/09/09 00:00:26;;;;;;;7.53;4.72;;;14.60;99.90;;;;;;5047001;28;20029;-50
2022/09/09 00:03:16;;;;;;;7.63;4.07;;;14.60;99.90;;;;;;5046839;28;20063;-49
2022/09/09 00:06:03;;;;;;;6.10;3.47;;;14.50;99.90;;;;;;5052294;28;20035;-48
2022/09/09 00:08:54;;;;;;;3.97;3.53;;;14.50;99.90;;;;;;5050783;28;20548;-46
2022/09/09 00:11:27;;;;;;;12.23;3.80;;;14.50;99.90;;;;;;5051992;28;20017;-48
2022/09/09 00:13:54;;;;;;;4.30;3.30;;;14.50;99.90;;;;;;5051279;28;20478;-49
2022/09/09 00:16:25;;;;;;;4.65;3.55;;;14.50;99.90;;;;;;5045108;28;20394;-47
2022/09/09 00:19:02;;;;;;;7.43;3.25;;;14.40;99.90;;;;;;5046944;28;20509;-49
2022/09/09 00:21:43;;;;;;;4.28;3.42;;;14.40;99.90;;;;;;5051897;28;20099;-47
2022/09/09 00:24:25;;;;;;;;;;;14.40;99.90;;;;;;5051774;28;20040;-47
2022/09/09 00:26:57;;;;;;;5.68;3.10;;;14.40;99.90;;;;;;5051941;28;20129;-48
2022/09/09 00:29:45;;;;;;;5.63;3.13;;;14.40;99.90;;;;;;5046906;28;20414;-49
2022/09/09 00:32:17;;;;;;;8.32;2.72;;;14.40;99.90;;;;;;5041021;28;20100;-49
2022/09/09 00:35:12;;;;;;;6.10;3.15;;;14.30;99.90;;;;;;5050985;28;20108;-49
2022/09/09 00:37:39;;;;;;;4.47;2.58;;;14.40;99.90;;;;;;5051438;28;20036;-47
2022/09/09 00:40:22;;;;;;;4.65;2.58;;;14.30;99.90;;;;;;5051209;28;20315;-47
2022/09/09 00:42:54;;;;;;;4.13;2.60;;;14.40;99.90;;;;;;5050706;28;20487;-47
2022/09/09 00:45:54;;;;;;;6.47;2.63;;;14.30;99.90;;;;;;5048093;28;20514;-47
2022/09/09 00:48:29;;;;;;;7.72;2.58;;;14.40;99.90;;;;;;5041882;28;20029;-46
2022/09/09 00:51:00;;;;;;;3.30;2.53;;;14.30;99.90;;;;;;5050970;28;20021;-47
2022/09/09 00:53:34;;;;;;;6.28;2.35;;;14.40;99.90;;;;;;5050734;28;20067;-46
2022/09/09 00:56:16;;;;;;;3.95;2.53;;;14.40;99.90;;;;;;5051109;28;20021;-46
2022/09/09 00:58:59;;;;;;;4.32;2.63;;;14.40;99.90;;;;;;5050852;28;20071;-47
2022/09/09 01:01:25;;;;;;;3.80;2.78;;;14.30;99.90;;;;;;5050925;28;20056;-47
2022/09/09 01:03:55;;;;;;;2.88;1.83;;;14.40;99.90;;;;;;5050319;28;20696;-47
2022/09/09 01:06:38;;;;;;;2.15;1.75;;;14.40;99.90;;;;;;5049596;28;20017;-46
2022/09/09 01:09:10;;;;;;;2.95;1.70;;;14.40;99.90;;;;;;5051076;28;20075;-50
2022/09/09 01:12:15;;;;;;;5.05;2.03;;;14.40;99.90;;;;;;5050881;28;20051;-47
2022/09/09 01:15:16;;;;;;;5.93;2.30;;;14.40;99.90;;;;;;5050026;28;20321;-47
2022/09/09 01:17:44;;;;;;;3.10;2.17;;;14.30;99.90;;;;;;5016449;28;20034;-46
2022/09/09 01:20:22;;;;;;;4.40;2.13;;;14.30;99.90;;;;;;5044204;28;20502;-49
2022/09/09 01:23:08;;;;;;;7.50;2.50;;;14.30;99.90;;;;;;5050156;28;20059;-48
2022/09/09 01:26:11;;;;;;;2.85;1.65;;;14.30;99.90;;;;;;5050570;28;20029;-47
2022/09/09 01:28:38;;;;;;;4.35;1.80;;;14.30;99.90;;;;;;5050612;28;20067;-47
2022/09/09 01:31:06;;;;;;;5.50;1.98;;;14.30;99.90;;;;;;5041913;28;20555;-47
2022/09/09 01:33:32;;;;;;;6.60;1.80;;;14.30;99.90;;;;;;5042781;28;20048;-46
2022/09/09 01:36:05;;;;;;;5.75;2.13;;;14.30;99.90;;;;;;5042120;28;20229;-47
2022/09/09 01:38:32;;;;;;;3.60;1.55;;;14.30;99.90;;;;;;5035819;28;20021;-46
2022/09/09 01:40:58;;;;;;;7.38;1.83;;;14.30;99.90;;;;;;5050269;28;20070;-45
2022/09/09 01:43:25;;;;;;;3.17;1.70;;;14.30;99.90;;;;;;5049580;28;20024;-46
2022/09/09 01:45:54;;;;;;;3.72;1.60;;;14.30;99.90;;;;;;5049954;28;20029;-50
2022/09/09 01:48:22;;;;;;;3.42;1.55;;;14.30;99.90;;;;;;5050052;28;20029;-47
2022/09/09 01:50:47;;;;;;;2.53;1.55;;;14.40;99.90;;;;;;5049591;28;20013;-48
2022/09/09 01:53:16;;;;;;;2.47;1.38;;;14.30;99.90;;;;;;5049427;28;20025;-46
2022/09/09 01:55:56;;;;;;;3.03;1.90;;;14.30;99.90;;;;;;5050262;28;20501;-49
2022/09/09 01:58:43;;;;;;;6.28;1.88;;;14.30;99.90;;;;;;5048475;28;20017;-48
2022/09/09 02:01:49;;;;;;;6.63;2.13;;;14.30;99.90;;;;;;5019446;28;20088;-48
2022/09/09 02:04:41;;;;;;;2.88;1.58;;;14.30;99.90;;;;;;5022792;28;20042;-47
2022/09/09 02:07:18;;;;;;;5.22;1.85;;;14.30;99.90;;;;;;5027232;28;20014;-47
2022/09/09 02:09:49;;;;;;;3.33;1.60;;;14.30;99.90;;;;;;5018560;28;20423;-46
2022/09/09 02:12:18;;;;;;;4.88;1.67;;;14.30;99.90;;;;;;5017683;28;20205;-48
2022/09/09 02:14:52;;;;;;;3.35;1.38;;;14.30;99.90;;;;;;5019042;28;20017;-47
2022/09/09 02:17:25;;;;;;;5.82;1.90;;;14.30;99.90;;;;;;5020927;28;20110;-49
2022/09/09 02:19:58;;;;;;;5.53;1.50;;;14.30;99.90;;;;;;5018993;28;20029;-49
2022/09/09 02:22:30;;;;;;;2.50;1.80;;;14.30;99.90;;;;;;5019740;28;20025;-48
2022/09/09 02:24:58;;;;;;;9.40;2.40;;;14.30;99.90;;;;;;5018644;28;20468;-48
2022/09/09 02:27:25;;;;;;;5.45;1.85;;;14.30;99.90;;;;;;5018045;28;20022;-48
2022/09/09 02:29:52;;;;;;;5.75;1.50;;;14.30;99.90;;;;;;5019727;28;20475;-47
2022/09/09 02:32:22;;;;;;;3.28;1.63;;;14.40;99.90;;;;;;5030827;28;20060;-47
2022/09/09 02:34:55;;;;;;;5.68;1.80;;;14.40;99.90;;;;;;5018958;28;20018;-49
2022/09/09 02:37:28;;;;;;;1.92;1.20;;;14.40;99.90;;;;;;5031318;28;20171;-47
2022/09/09 02:39:54;;;;;;;9.07;2.30;;;14.40;99.90;;;;;;5019990;28;20092;-46
2022/09/09 02:42:19;;;;;;;6.60;1.88;;;14.40;99.90;;;;;;5029537;28;20190;-50
2022/09/09 02:44:45;;;;;;;4.05;1.50;;;14.50;99.90;;;;;;5019676;28;20455;-47
2022/09/09 02:47:16;;;;;;;5.20;1.30;;;14.50;99.90;;;;;;5020128;28;20083;-47
2022/09/09 02:49:59;;;;;;;6.50;2.00;;;14.50;99.90;;;;;;5018915;28;20030;-47
2022/09/09 02:52:38;;;;;;;3.13;2.00;;;14.50;99.90;;;;;;5018817;28;20418;-46
2022/09/09 02:55:36;;;;;;;4.47;1.55;;;14.50;99.90;;;;;;5019079;28;20061;-46
2022/09/09 02:58:05;;;;;;;6.53;2.03;;;14.50;99.90;;;;;;5012185;28;20037;-47
2022/09/09 03:00:32;;;;;;;2.83;1.35;;;14.50;99.90;;;;;;5019733;28;20036;-47
2022/09/09 03:02:58;;;;;;;2.90;1.38;;;14.50;99.90;;;;;;5018594;28;20071;-46
2022/09/09 03:05:25;;;;;;;5.35;1.70;;;14.50;99.90;;;;;;5019077;28;20030;-46
2022/09/09 03:07:50;;;;;;;10.13;2.13;;;14.50;99.90;;;;;;5019841;28;20097;-47
2022/09/09 03:10:17;;;;;;;6.72;2.05;;;14.50;99.90;;;;;;5025035;28;20101;-46
2022/09/09 03:12:42;;;;;;;6.55;1.70;;;14.40;99.90;;;;;;5027077;28;20434;-47
2022/09/09 03:15:09;;;;;;;3.65;1.75;;;14.50;99.90;;;;;;5019597;28;20049;-46
2022/09/09 03:17:35;;;;;;;6.03;2.10;;;14.50;99.90;;;;;;5017526;28;20060;-46
2022/09/09 03:20:02;;;;;;;5.90;1.80;;;14.50;99.90;;;;;;5019949;28;20022;-47
2022/09/09 03:22:27;;;;;;;5.18;1.40;;;14.50;99.90;;;;;;5018889;28;20064;-47
2022/09/09 03:24:53;;;;;;;3.13;1.40;;;14.50;99.90;;;;;;5018779;28;20065;-46
2022/09/09 03:27:19;;;;;;;6.90;1.80;;;14.40;99.90;;;;;;5026125;28;20033;-46
2022/09/09 03:29:45;;;;;;;6.07;1.63;;;14.40;99.90;;;;;;5017929;28;20014;-48
2022/09/09 03:32:12;;;;;;;5.53;1.80;;;14.40;99.90;;;;;;5021704;28;20022;-46
2022/09/09 03:34:40;;;;;;;5.63;1.60;;;14.40;99.90;;;;;;5026761;28;20108;-46
2022/09/09 03:37:06;;;;;;;4.22;1.60;;;14.40;99.90;;;;;;5024769;28;20029;-47
2022/09/09 03:39:32;;;;;;;7.13;1.85;;;14.40;99.90;;;;;;5044332;28;20097;-47
2022/09/09 03:41:57;;;;;;;7.88;1.88;;;14.40;99.90;;;;;;5045077;28;20592;-48
2022/09/09 03:44:23;;;;;;;7.90;2.05;;;14.40;99.90;;;;;;5048519;28;20032;-47
2022/09/09 03:46:48;;;;;;;6.70;2.10;;;14.40;99.90;;;;;;5048921;28;20029;-47
2022/09/09 03:49:15;;;;;;;8.02;2.10;;;14.40;99.90;;;;;;5049000;28;20060;-46
2022/09/09 03:51:41;;;;;;;3.83;1.65;;;14.40;99.90;;;;;;5049233;28;20416;-47
2022/09/09 03:54:08;;;;;;;4.57;1.90;;;14.40;99.90;;;;;;5047446;28;20029;-50
2022/09/09 03:56:34;;;;;;;7.05;2.03;;;14.40;99.90;;;;;;5048975;28;20033;-47
2022/09/09 03:59:00;;;;;;;4.47;1.90;;;14.50;99.90;;;;;;5047529;28;20594;-49
2022/09/09 04:01:26;;;;;;;7.22;1.98;;;14.50;99.90;;;;;;5038907;28;20095;-45
2022/09/09 04:03:52;;;;;;;11.52;1.95;;;14.50;99.90;;;;;;5043800;28;20135;-46
2022/09/09 04:06:19;;;;;;;6.57;2.20;;;14.50;99.90;;;;;;5041194;28;20104;-48
2022/09/09 04:08:48;;;;;;;6.10;2.47;;;14.50;99.90;;;;;;5040696;28;20040;-47
2022/09/09 04:11:13;;;;;;;6.90;1.98;;;14.50;99.90;;;;;;5029517;28;20137;-46
2022/09/09 04:13:39;;;;;;;11.20;2.28;;;14.50;99.90;;;;;;5027425;28;20103;-46
2022/09/09 04:16:05;;;;;;;7.78;3.00;;;14.40;99.90;;;;;;5041028;28;20414;-46
2022/09/09 04:18:31;;;;;;;4.03;1.75;;;14.50;99.90;;;;;;5045903;28;20037;-46
2022/09/09 04:20:57;;;;;;;8.38;1.75;;;14.50;99.90;;;;;;5035782;28;20033;-47
2022/09/09 04:23:25;;;;;;;5.03;1.92;;;14.40;99.90;;;;;;5025249;28;20022;-47
2022/09/09 04:25:52;;;;;;;8.73;2.20;;;14.50;99.90;;;;;;5027998;28;20030;-47
2022/09/09 04:28:22;;;;;;;7.97;2.20;;;14.40;99.90;;;;;;5024394;28;20022;-47
2022/09/09 04:30:48;;;;;;;2.95;1.95;;;14.40;99.90;;;;;;5027827;28;20017;-47
2022/09/09 04:33:14;;;;;;;5.05;2.22;;;14.40;99.90;;;;;;5025892;28;20080;-48
2022/09/09 04:35:47;;;;;;;7.32;2.00;;;14.40;99.90;;;;;;5023585;28;20025;-48
2022/09/09 04:38:13;;;;;;;7.18;2.25;;;14.40;99.90;;;;;;5025267;28;20021;-49
2022/09/09 04:40:42;;;;;;;5.28;2.47;;;14.40;99.90;;;;;;5022179;28;20027;-46
2022/09/09 04:43:08;;;;;;;9.45;2.30;;;14.40;99.90;;;;;;5026150;28;20110;-45
2022/09/09 04:45:34;;;;;;;9.32;2.15;;;14.40;99.90;;;;;;5024698;28;20068;-47
2022/09/09 04:48:00;;;;;;;9.77;2.95;;;14.40;99.90;;;;;;5030621;28;20068;-47
2022/09/09 04:50:25;;;;;;;6.82;2.65;;;14.50;99.90;;;;;;5052827;28;20498;-46
2022/09/09 04:52:51;;;;;;;6.55;2.30;;;14.50;99.90;;;;;;5042603;28;20088;-47
2022/09/09 04:55:16;;;;;;;10.52;2.30;;;14.50;99.90;;;;;;5051539;28;20108;-50
2022/09/09 04:57:42;;;;;;;5.68;1.92;;;14.50;99.90;;;;;;5046172;28;20018;-47
2022/09/09 05:00:09;;;;;;;8.80;2.15;;;14.60;99.90;;;;;;5041768;28;20417;-47
2022/09/09 05:02:38;;;;;;;6.07;1.90;;;14.60;99.90;;;;;;5050033;28;20024;-48
2022/09/09 05:05:04;;;;;;;5.28;2.58;;;14.70;99.90;;;;;;5040941;28;20017;-49
2022/09/09 05:07:31;;;;;;;8.93;2.42;;;14.60;99.90;;;;;;5051685;28;20028;-49
2022/09/09 05:09:56;;;;;;;5.18;2.53;;;14.70;99.90;;;;;;5042845;28;20026;-47
2022/09/09 05:12:23;;;;;;;4.05;2.20;;;14.70;99.90;;;;;;5049391;28;20017;-46
2022/09/09 05:14:50;;;;;;;5.65;2.03;;;14.70;99.90;;;;;;5041984;28;20052;-46
2022/09/09 05:17:16;;;;;;;2.80;1.83;;;14.70;99.90;;;;;;5041751;28;20499;-48
2022/09/09 05:19:41;;;;;;;6.20;2.33;;;14.70;99.90;;;;;;5048904;28;20029;-47
2022/09/09 05:22:07;;;;;;;8.95;2.65;;;14.70;99.90;;;;;;5042118;28;20039;-46
2022/09/09 05:24:33;;;;;;;6.18;2.13;;;14.80;99.90;;;;;;5049745;28;20421;-48
2022/09/09 05:26:59;;;;;;;6.03;2.38;;;14.80;99.90;;;;;;5050523;28;20484;-47
2022/09/09 05:29:26;;;;;;;5.75;1.88;;;14.90;99.90;;;;;;5050383;28;20025;-48
2022/09/09 05:31:51;;;;;;;6.13;2.35;;;14.90;99.90;;;;;;5041698;28;20101;-47
2022/09/09 05:34:17;;;;;;;7.00;2.03;;;14.90;99.90;;;;;;5040534;28;20424;-48
2022/09/09 05:36:42;;;;;;;6.47;1.92;;;14.90;99.90;;;;;;5050201;28;20435;-48
2022/09/09 05:39:08;;;;;;;4.97;2.10;;;15.00;99.90;;;;;;5050251;28;20039;-48
2022/09/09 05:41:35;;;;;;;8.52;2.47;;;15.00;99.90;;;;;;5048731;28;20116;-47
2022/09/09 05:44:01;;;;;;;7.07;2.78;;;15.00;99.90;;;;;;5048414;28;20025;-48
2022/09/09 05:46:27;;;;;;;5.43;2.00;;;15.00;99.90;;;;;;5049838;28;20036;-48
2022/09/09 05:48:53;;;;;;;5.70;2.30;;;15.00;99.90;;;;;;5050686;28;20382;-46
2022/09/09 05:51:24;;;;;;;5.88;2.15;;;15.10;99.90;;;;;;5048678;28;20394;-46
2022/09/09 05:53:55;;;;;;;3.70;1.80;;;15.10;99.90;;;;;;5036431;28;20021;-47
2022/09/09 05:56:24;;;;;;;3.85;1.70;;;15.20;99.90;;;;;;5027059;28;20026;-47
2022/09/09 05:58:51;;;;;;;4.40;2.27;;;15.20;99.90;;;;;;5019940;28;20022;-47
2022/09/09 06:01:19;;;;;;;7.53;2.15;;;15.20;99.90;;;;;;5021010;28;20463;-47
2022/09/09 06:03:46;;;;;;;6.80;2.22;;;15.30;99.90;;;;;;5028512;28;20497;-48
2022/09/09 06:06:18;;;;;;;7.78;2.13;;;15.30;99.90;;;;;;5029764;28;20124;-47
2022/09/09 06:08:44;;;;;;;6.38;2.10;;;15.30;99.90;;;;;;5025544;28;20100;-47
2022/09/09 06:11:13;;;;;;;6.70;2.58;;;15.30;99.90;;;;;;5027822;28;20025;-47
2022/09/09 06:13:39;;;;;;;4.78;1.73;;;15.30;99.90;;;;;;5029021;28;20045;-48
2022/09/09 06:16:11;;;;;;;3.17;1.80;;;15.30;99.90;;;;;;5029268;28;20021;-47
2022/09/09 06:18:36;;;;;;;6.10;2.30;;;15.30;99.90;;;;;;5029081;28;20483;-48
2022/09/09 06:21:06;;;;;;;6.15;2.30;;;15.30;99.90;;;;;;5029081;28;20108;-47
2022/09/09 06:23:31;;;;;;;4.93;1.75;;;15.40;99.90;;;;;;5028858;28;20035;-47
2022/09/09 06:26:09;;;;;;;7.30;2.08;;;15.40;99.90;;;;;;5029432;28;20022;-49
2022/09/09 06:28:36;;;;;;;5.05;2.42;;;15.60;99.90;;;;;;5029480;28;20467;-47
2022/09/09 06:31:07;;;;;;;5.60;2.17;;;15.70;99.90;;;;;;5028847;28;20113;-47
2022/09/09 06:33:41;;;;;;;6.38;2.13;;;15.90;99.90;;;;;;5036670;28;20112;-47
2022/09/09 06:36:10;;;;;;;5.18;2.30;;;16.00;99.90;;;;;;5046370;28;20031;-47
2022/09/09 06:38:36;;;;;;;5.97;1.98;;;16.10;99.90;;;;;;5048916;28;20029;-47
2022/09/09 06:41:01;;;;;;;5.22;2.10;;;16.30;99.90;;;;;;5035855;28;20018;-47
2022/09/09 06:43:27;;;;;;;5.00;2.17;;;16.40;99.90;;;;;;5029255;28;20370;-47
2022/09/09 06:46:08;;;;;;;5.95;1.85;;;16.40;99.90;;;;;;5028708;28;20022;-47
2022/09/09 06:48:34;;;;;;;7.55;2.38;;;16.40;99.90;;;;;;5028657;28;20434;-51
2022/09/09 06:51:05;;;;;;;6.20;2.40;;;16.30;99.90;;;;;;5019742;28;20037;-52
2022/09/09 06:53:33;;;;;;;9.43;2.70;;;16.10;99.90;;;;;;5018357;28;20407;-49
2022/09/09 06:56:01;;;;;;;8.65;3.47;;;15.90;99.90;;;;;;5014907;28;20226;-51
2022/09/09 06:58:26;;;;;;;12.15;3.65;;;15.70;99.90;;;;;;5009324;28;20076;-51
2022/09/09 07:00:52;;;;;;;6.78;3.20;;;15.60;99.90;;;;;;5012460;28;20025;-52
2022/09/09 07:03:18;;;;;;;8.20;3.50;;;15.50;99.90;;;;;;5025666;28;20495;-53
2022/09/09 07:05:53;;;;;;;7.15;2.95;;;15.40;99.90;;;;;;5014738;28;20025;-50
2022/09/09 07:08:18;;;;;;;11.63;3.35;;;15.40;99.90;;;;;;5019705;28;20329;-49
2022/09/09 07:10:44;;;;;;;8.73;3.72;;;15.40;99.90;;;;;;5018986;28;20026;-51
2022/09/09 07:13:09;;;;;;;11.15;3.70;;;15.30;99.90;;;;;;5018453;28;20083;-49
2022/09/09 07:15:35;;;;;;;9.73;3.78;;;15.30;99.90;;;;;;5019409;28;20055;-50
2022/09/09 07:18:02;;;;;;;5.13;3.42;;;15.30;99.90;;;;;;5021724;28;20029;-50
2022/09/09 07:20:27;;;;;;;12.57;4.15;;;15.40;99.90;;;;;;5014339;28;20041;-51
2022/09/09 07:22:55;;;;;;;10.77;3.05;;;15.50;99.90;;;;;;5014198;28;20022;-50
2022/09/09 07:25:21;;;;;;;7.43;3.08;;;15.70;99.90;;;;;;5019451;28;20022;-48
2022/09/09 07:27:47;;;;;;;6.65;2.72;;;16.00;99.90;;;;;;5018334;28;20355;-50
2022/09/09 07:30:12;;;;;;;5.80;2.65;;;16.20;99.90;;;;;;5019148;28;20025;-51
2022/09/09 07:32:38;;;;;;;8.00;2.63;;;16.40;99.90;;;;;;5018202;28;20112;-52
2022/09/09 07:35:04;;;;;;;7.85;2.70;;;16.40;99.90;;;;;;5017827;28;20065;-53
2022/09/09 07:37:29;;;;;;;8.85;2.75;;;16.40;99.90;;;;;;5017420;28;20041;-52
2022/09/09 07:39:55;;;;;;;4.70;2.50;;;16.50;99.90;;;;;;5019517;28;20042;-50
2022/09/09 07:42:20;;;;;;;9.75;3.55;;;16.50;99.90;;;;;;5025231;28;20490;-52
2022/09/09 07:44:45;;;;;;;10.32;3.03;;;16.60;99.90;;;;;;5021633;28;20109;-52
2022/09/09 07:47:11;;;;;;;5.75;3.35;;;16.60;99.90;;;;;;5017754;28;20030;-52
2022/09/09 07:49:36;;;;;;;5.05;2.85;;;16.70;99.90;;;;;;5018836;28;20068;-52
2022/09/09 07:52:03;;;;;;;10.40;2.95;;;16.80;99.90;;;;;;5017501;28;20073;-53
2022/09/09 07:54:28;;;;;;;7.63;2.97;;;16.90;99.90;;;;;;5017360;28;20104;-50
2022/09/09 07:56:54;;;;;;;8.30;2.50;;;17.10;99.90;;;;;;5020547;28;21068;-52
2022/09/09 07:59:19;;;;;;;8.80;2.90;;;17.50;99.90;;;;;;5020953;28;20025;-52
2022/09/09 08:01:47;;;;;;;5.30;2.70;;;17.90;99.90;;;;;;5022018;28;20056;-48
2022/09/09 08:04:16;;;;;;;4.80;1.90;;;18.30;99.90;;;;;;5014174;28;20033;-52
2022/09/09 08:06:46;;;;;;;4.05;2.22;;;18.60;99.90;;;;;;5012263;28;20472;-52
2022/09/09 08:09:12;;;;;;;5.72;2.22;;;18.80;99.90;;;;;;5012294;28;20104;-51
2022/09/09 08:11:39;;;;;;;5.15;1.92;;;18.50;99.90;;;;;;5024573;28;20033;-49
2022/09/09 08:14:05;;;;;;;4.55;2.05;;;18.30;99.90;;;;;;5028149;28;20022;-49
2022/09/09 08:16:33;;;;;;;7.65;2.45;;;18.10;99.90;;;;;;5027756;28;20021;-50
2022/09/09 08:18:59;;;;;;;7.70;2.10;;;18.20;99.90;;;;;;5036333;28;20124;-49
2022/09/09 08:21:27;;;;;;;9.52;4.28;;;18.60;99.90;;;;;;5051767;28;20064;-49
2022/09/09 08:23:54;;;;;;;4.82;2.92;;;18.70;99.90;;;;;;5047784;28;20025;-49
2022/09/09 08:26:26;;;;;;;5.43;2.10;;;18.80;99.90;;;;;;5022289;28;20024;-49
2022/09/09 08:28:54;;;;;;;5.07;1.88;;;18.70;99.90;;;;;;5011197;28;20044;-49
2022/09/09 08:31:25;;;;;;;5.45;1.90;;;18.90;99.90;;;;;;5024843;28;20025;-49
2022/09/09 08:33:50;;;;;;;8.13;2.05;;;19.40;99.90;;;;;;5037100;28;20026;-51
2022/09/09 08:36:18;;;;;;;5.28;1.60;;;20.20;99.90;;;;;;5048934;28;20039;-47
2022/09/09 08:38:47;;;;;;;6.03;1.98;;;21.30;99.90;;;;;;5050258;28;20141;-47
2022/09/09 08:41:34;;;;;;;7.28;1.75;;;21.80;99.90;;;;;;5039862;28;20095;-47
2022/09/09 08:44:36;;;;;;;4.28;1.60;;;22.70;99.90;;;;;;5049716;28;20490;-47
2022/09/09 08:47:39;;;;;;;3.33;1.50;;;22.80;99.90;;;;;;5044155;28;20083;-48
2022/09/09 08:50:27;;;;;;;3.85;1.65;;;23.30;99.90;;;;;;5047496;28;20017;-47
2022/09/09 08:53:18;;;;;;;3.58;1.08;;;22.90;99.90;;;;;;5050045;28;20386;-47
2022/09/09 08:55:51;;;;;;;;;;;23.80;99.90;;;;;;5050881;28;20033;-49
2022/09/09 08:58:29;;;;;;;4.80;1.90;;;24.20;99.90;;;;;;5049754;28;20004;-48
2022/09/09 09:01:32;;;;;;;5.63;1.88;;;24.20;99.90;;;;;;5047451;28;20104;-50
2022/09/09 09:04:11;;;;;;;3.00;1.60;;;23.70;99.90;;;;;;5048080;28;20025;-48
2022/09/09 09:06:45;;;;;;;3.85;1.80;;;23.20;99.90;;;;;;5049771;28;20048;-47
2022/09/09 09:09:46;;;;;;;6.60;2.00;;;22.60;99.90;;;;;;5049668;28;20021;-48
2022/09/09 09:12:24;;;;;;;6.95;1.95;;;24.10;99.90;;;;;;5049315;28;20025;-48
2022/09/09 09:14:50;;;;;;;5.05;1.50;;;24.40;99.10;;;;;;5049430;28;20059;-48
2022/09/09 09:17:21;;;;;;;6.72;1.90;;;25.40;95.10;;;;;;5042973;28;20033;-48
2022/09/09 09:19:49;;;;;;;7.40;1.73;;;24.90;94.60;;;;;;5044235;28;20079;-48
2022/09/09 09:22:33;;;;;;;3.78;1.65;;;24.30;96.30;;;;;;5049637;28;20017;-51
2022/09/09 09:25:11;;;;;;;5.00;1.80;;;23.40;96.90;;;;;;5048077;28;20024;-47
2022/09/09 09:27:47;;;;;;;8.55;7.07;;;22.40;99.10;;;;;;5049126;28;20029;-47
2022/09/09 09:30:18;;;;;;;4.88;2.38;;;22.40;99.90;;;;;;5049448;28;20029;-48
2022/09/09 09:32:52;;;;;;;;;;;23.40;99.20;;;;;;5040960;28;20029;-47
2022/09/09 09:35:17;;;;;;;5.15;1.45;;;24.80;96.60;;;;;;5030505;28;19920;-51
2022/09/09 09:37:44;;;;;;;6.88;1.80;;;26.20;95.40;;;;;;5019782;28;20475;-51
2022/09/09 09:40:13;;;;;;;3.70;1.45;;;27.30;90.60;;;;;;5027731;28;20550;-48
2022/09/09 09:42:53;;;;;;;4.10;1.40;;;27.60;87.60;;;;;;5020630;28;20047;-48
2022/09/09 09:45:41;;;;;;;3.80;1.35;;;28.10;84.80;;;;;;5021130;28;20055;-49
2022/09/09 09:48:11;;;;;;;3.13;1.58;;;29.40;87.90;;;;;;5045531;28;20029;-51
2022/09/09 09:50:48;;;;;;;4.72;1.60;;;30.90;80.70;;;;;;5025465;28;20426;-51
2022/09/09 09:53:27;;;;;;;2.60;1.40;;;30.90;77.40;;;;;;5018640;28;20048;-49
2022/09/09 09:55:58;;;;;;;4.60;1.40;;;31.50;72.50;;;;;;5021237;28;20025;-49
2022/09/09 09:58:26;;;;;;;2.67;1.40;;;31.50;68.40;;;;;;5024553;28;20056;-50
2022/09/09 10:00:53;;;;;;;3.67;1.33;;;30.80;71.80;;;;;;5017408;28;20026;-49
2022/09/09 10:03:23;;;;;;;3.92;1.50;;;31.20;69.40;;;;;;5024552;28;20021;-51
2022/09/09 10:05:49;;;;;;;6.28;1.88;;;32.30;65.90;;;;;;5021989;28;20096;-51
2022/09/09 10:08:16;;;;;;;5.28;1.63;;;31.10;64.90;;;;;;5017656;28;20102;-48
2022/09/09 10:10:57;;;;;;;4.07;1.55;;;29.10;68.20;;;;;;5018950;28;20103;-51
2022/09/09 10:13:43;;;;;;;5.22;1.38;;;28.10;72.80;;;;;;5019427;28;20076;-50
2022/09/09 10:16:48;;;;;;;8.15;2.40;;;28.00;77.30;;;;;;5022183;28;20022;-50
2022/09/09 10:19:19;;;;;;;3.97;1.70;;;29.10;72.80;;;;;;5023071;28;20530;-50
2022/09/09 10:22:18;;;;;;;4.10;1.60;;;29.10;73.80;;;;;;5020094;28;20503;-48
2022/09/09 10:25:18;;;;;;;6.80;1.48;;;28.10;72.80;;;;;;5019774;28;20032;-50
2022/09/09 10:28:00;;;;;;;3.50;1.50;;;27.90;77.10;;;;;;5009839;28;20080;-50
2022/09/09 10:30:44;;;;;;;4.65;1.33;;;28.60;74.60;;;;;;5008154;28;20394;-51
2022/09/09 10:33:18;;;;;;;4.18;1.60;;;30.20;69.80;;;;;;5018312;28;20025;-48
2022/09/09 10:35:52;;;;;;;4.65;1.08;;;31.70;67.90;;;;;;5040733;28;20044;-51
2022/09/09 10:38:29;;;;;;;3.67;1.25;;;32.60;64.20;;;;;;5047670;28;20025;-48
2022/09/09 10:40:58;;;;;;;3.25;1.20;;;33.70;64.00;;;;;;5033390;28;20021;-49
2022/09/09 10:43:39;;;;;;;6.90;1.90;;;32.20;60.30;;;;;;5045738;28;20176;-51
2022/09/09 10:46:19;;;;;;;3.72;1.48;;;31.00;62.20;;;;;;5038045;28;20017;-50
2022/09/09 10:48:56;;;;;;;1.77;1.00;;;30.60;65.20;;;;;;5049116;28;20091;-49
2022/09/09 10:51:30;;;;;;;2.67;1.20;;;30.00;61.30;;;;;;5049235;28;20112;-48
2022/09/09 10:54:15;;;;;;;3.63;1.20;;;28.80;67.00;;;;;;5048274;28;20036;-51
2022/09/09 10:56:44;;;;;;;4.72;1.38;;;29.40;68.20;;;;;;5048549;28;20211;-49
2022/09/09 10:59:17;;;;;;;4.25;1.67;;;31.10;63.30;;;;;;5048627;28;20037;-49
2022/09/09 11:01:54;;;;;;;3.33;1.10;;;30.70;60.70;;;;;;5048805;28;20104;-48
2022/09/09 11:04:27;;;;;;;4.90;1.55;;;29.80;64.00;;;;;;5028998;28;20034;-48
2022/09/09 11:06:55;;;;;;;3.03;1.40;;;27.50;67.40;;;;;;5016457;28;20021;-49
2022/09/09 11:09:25;;;;;;;4.40;1.27;;;27.40;69.10;;;;;;5016062;28;20834;-48
2022/09/09 11:11:55;;;;;;;;;;;27.30;69.60;;;;;;5019242;28;20025;-49
2022/09/09 11:14:42;;;;;;;5.18;1.50;;;28.00;70.10;;;;;;5020847;28;19905;-48
2022/09/09 11:17:15;;;;;;;2.78;1.20;;;28.10;67.40;;;;;;5024031;28;20040;-48
2022/09/09 11:19:42;;;;;;;3.45;1.40;;;28.70;68.70;;;;;;5016656;28;20487;-48
2022/09/09 11:22:26;;;;;;;6.18;1.60;;;29.40;70.30;;;;;;5017274;28;20025;-50
2022/09/09 11:24:59;;;;;;;3.38;1.50;;;29.30;65.80;;;;;;5018564;28;20025;-49
2022/09/09 11:27:43;;;;;;;3.50;1.58;;;27.30;67.90;;;;;;5017616;28;20026;-50
2022/09/09 11:30:38;;;;;;;3.55;1.20;;;26.20;71.10;;;;;;5017519;28;20021;-48
2022/09/09 11:33:34;;;;;;;4.07;1.50;;;25.90;74.00;;;;;;5011019;28;20033;-49
2022/09/09 11:36:33;;;;;;;4.25;1.25;;;25.10;75.70;;;;;;5034269;28;20064;-50
2022/09/09 11:39:28;;;;;;;4.00;1.60;;;24.40;78.80;;;;;;5039395;28;20029;-48
2022/09/09 11:41:53;;;;;;;3.70;1.77;;;23.90;82.30;;;;;;5040763;28;20033;-50
2022/09/09 11:44:29;;;;;;;5.20;1.27;;;23.60;82.40;;;;;;5046519;28;20036;-49
2022/09/09 11:46:54;;;;;;;2.65;1.20;;;23.60;85.00;;;;;;5043926;28;20070;-47
2022/09/09 11:49:31;;;;;;;3.20;1.25;;;23.50;84.20;;;;;;5050999;28;20021;-49
2022/09/09 11:51:56;;;;;;;2.83;1.70;;;23.60;84.00;;;;;;5052205;28;20021;-48
2022/09/09 11:54:31;;;;;;;4.05;1.40;;;23.50;87.20;;;;;;5052009;28;20309;-49
2022/09/09 11:56:57;;;;;;;3.10;1.10;;;23.30;84.10;;;;;;5052195;28;20581;-49
2022/09/09 11:59:31;;;;;;;7.10;1.40;;;23.30;85.40;;;;;;5052068;28;20256;-48
2022/09/09 12:02:13;;;;;;;6.60;1.67;;;23.40;86.50;;;;;;5036296;28;20026;-48
2022/09/09 12:04:48;;;;;;;8.80;2.38;;;23.10;84.40;;;;;;5023083;28;20034;-48
2022/09/09 12:07:47;;;;;;;6.78;1.73;;;23.50;84.90;;;;;;5021235;28;20482;-49
2022/09/09 12:10:27;;;;;;;4.40;1.45;;;23.40;84.50;;;;;;5020588;28;20065;-49
2022/09/09 12:12:53;;;;;;;8.07;2.10;;;23.20;84.60;;;;;;5020471;28;20018;-47
2022/09/09 12:15:27;;;;;;;4.53;1.27;;;22.90;86.60;;;;;;5021505;28;20225;-47
2022/09/09 12:17:55;;;;;;;4.68;2.70;;;22.90;87.00;;;;;;5020869;28;20022;-47
2022/09/09 12:20:34;;;;;;;6.88;2.45;;;23.00;88.50;;;;;;5021130;28;20043;-49
2022/09/09 12:23:17;;;;;;;6.85;2.35;;;22.90;88.90;;;;;;5021244;28;20060;-49
2022/09/09 12:25:56;;;;;;;6.28;1.70;;;22.70;86.10;;;;;;5021593;28;20376;-48
2022/09/09 12:28:30;;;;;;;5.45;1.63;;;21.80;89.20;;;;;;5021726;28;20034;-48
2022/09/09 12:31:17;;;;;;;5.47;1.90;;;21.30;90.90;;;;;;5026086;28;20025;-49
2022/09/09 12:33:47;;;;;;;5.07;1.27;;;20.90;92.30;;;;;;5029468;28;20028;-47
2022/09/09 12:36:16;;;;;;;3.33;1.35;;;20.70;93.90;;;;;;5039759;28;20021;-47
2022/09/09 12:38:43;;;;;;;7.15;1.90;;;20.50;95.50;;;;;;5051438;28;20664;-49
2022/09/09 12:41:26;;;;;;;6.55;1.60;;;20.40;96.00;;;;;;5051446;28;20497;-48
2022/09/09 12:44:03;;;;;;;3.35;1.58;;;20.50;96.00;;;;;;5048898;28;20555;-47
2022/09/09 12:46:36;;;;;;;3.95;1.92;;;20.90;95.90;;;;;;5051715;28;20155;-47
2022/09/09 12:49:03;;;;;;;4.70;1.58;;;21.60;96.90;;;;;;5037870;28;20055;-48
2022/09/09 12:51:31;;;;;;;6.43;2.35;;;22.10;93.60;;;;;;5049840;28;20070;-48
2022/09/09 12:53:57;;;;;;;4.57;1.75;;;22.40;93.80;;;;;;5045106;28;20025;-47
2022/09/09 12:56:26;;;;;;;4.13;1.50;;;22.70;92.00;;;;;;5042746;28;20021;-49
2022/09/09 12:58:54;;;;;;;9.23;2.00;;;23.00;91.50;;;;;;5050129;28;20021;-49
2022/09/09 13:01:25;;;;;;;5.25;1.50;;;23.30;90.70;;;;;;5050479;28;20035;-47
2022/09/09 13:03:52;;;;;;;4.05;1.75;;;23.30;89.20;;;;;;5050152;28;20033;-48
2022/09/09 13:06:24;;;;;;;4.50;1.50;;;23.40;91.40;;;;;;5051269;28;20467;-46
2022/09/09 13:08:54;;;;;;;2.67;1.25;;;23.60;90.90;;;;;;5049606;28;20045;-47
2022/09/09 13:11:36;;;;;;;7.13;1.30;;;23.90;91.50;;;;;;5051025;28;20055;-47
2022/09/09 13:14:02;;;;;;;5.05;1.60;;;24.00;90.80;;;;;;5025081;28;20057;-47